createdAt,value
2022-12-28T00:01:47.891Z,98842.00
2022-12-28T00:04:17.618Z,98847.72
2022-12-28T00:06:45.597Z,98864.59
2022-12-28T00:09:13.239Z,98894.94
2022-12-28T00:11:40.326Z,98890.31
2022-12-28T00:14:07.578Z,98895.53
2022-12-28T00:16:42.167Z,98915.06
2022-12-28T00:19:15.912Z,98923.00
2022-12-28T00:21:43.747Z,98932.41
2022-12-28T00:24:22.897Z,98932.91
2022-12-28T00:26:50.278Z,98936.88
2022-12-28T00:29:18.236Z,98941.88
2022-12-28T00:31:46.383Z,98936.88
2022-12-28T00:34:13.595Z,98928.63
2022-12-28T00:37:11.740Z,98938.56
2022-12-28T00:39:29.314Z,98933.06
2022-12-28T00:41:56.325Z,98932.66
2022-12-28T00:44:23.360Z,98942.56
2022-12-28T00:46:50.533Z,98947.94
2022-12-28T00:49:18.433Z,98939.47
2022-12-28T00:51:45.513Z,98937.81
2022-12-28T00:54:12.704Z,98924.84
2022-12-28T00:56:41.658Z,98942.34
2022-12-28T00:59:09.242Z,98952.91
2022-12-28T01:01:36.714Z,98960.16
2022-12-28T01:04:03.991Z,98965.50
2022-12-28T01:06:31.253Z,98975.44
2022-12-28T01:08:58.364Z,98959.38
2022-12-28T01:11:29.286Z,98958.88
2022-12-28T01:13:58.903Z,98951.41
2022-12-28T01:16:29.865Z,98968.34
2022-12-28T01:19:01.081Z,98975.31
2022-12-28T01:21:30.627Z,98993.16
2022-12-28T01:24:00.145Z,98992.38
2022-12-28T01:26:28.311Z,98989.72
2022-12-28T01:28:56.087Z,98986.34
2022-12-28T01:31:23.508Z,98992.47
2022-12-28T01:33:51.341Z,98992.88
2022-12-28T01:36:29.902Z,99001.34
2022-12-28T01:39:00.078Z,99011.19
2022-12-28T01:41:29.486Z,99012.06
2022-12-28T01:43:56.378Z,99021.03
2022-12-28T01:46:50.081Z,99023.94
2022-12-28T01:49:27.608Z,99019.22
2022-12-28T01:52:03.830Z,99031.75
2022-12-28T01:54:39.990Z,99039.19
2022-12-28T01:57:07.463Z,99038.88
2022-12-28T01:59:39.952Z,99037.13
2022-12-28T02:02:07.536Z,99033.81
2022-12-28T02:04:34.885Z,99032.13
2022-12-28T02:07:01.798Z,99029.63
2022-12-28T02:09:37.137Z,99026.53
2022-12-28T02:12:04.203Z,99027.69
2022-12-28T02:14:31.691Z,99037.31
2022-12-28T02:16:58.675Z,99029.81
2022-12-28T02:19:47.396Z,99038.63
2022-12-28T02:22:43.749Z,99043.91
2022-12-28T02:25:14.092Z,99058.09
2022-12-28T02:27:41.105Z,99047.16
2022-12-28T02:30:08.619Z,99041.59
2022-12-28T02:32:41.461Z,99040.59
2022-12-28T02:35:34.452Z,99048.38
2022-12-28T02:38:10.395Z,99048.53
2022-12-28T02:40:46.102Z,99048.53
2022-12-28T02:43:13.681Z,99030.50
2022-12-28T02:46:05.165Z,99031.41
2022-12-28T02:49:01.664Z,99035.84
2022-12-28T02:52:07.022Z,99054.00
2022-12-28T02:55:21.697Z,99053.00
2022-12-28T02:58:19.520Z,99057.53
2022-12-28T03:01:09.449Z,99050.06
2022-12-28T03:04:09.705Z,99051.88
2022-12-28T03:07:13.677Z,99050.00
2022-12-28T03:10:05.402Z,99056.50
2022-12-28T03:12:41.081Z,99054.13
2022-12-28T03:15:10.742Z,99055.34
2022-12-28T03:18:00.474Z,99068.28
2022-12-28T03:20:50.789Z,99072.63
2022-12-28T03:23:40.025Z,99075.59
2022-12-28T03:26:29.801Z,99072.22
2022-12-28T03:29:18.396Z,99079.88
2022-12-28T03:31:45.687Z,99075.59
2022-12-28T03:34:15.209Z,99082.44
2022-12-28T03:36:55.767Z,99073.84
2022-12-28T03:39:47.904Z,99073.72
2022-12-28T03:42:46.382Z,99062.94
2022-12-28T03:45:45.643Z,99078.38
2022-12-28T03:48:14.661Z,99069.94
2022-12-28T03:50:44.299Z,99084.41
2022-12-28T03:53:18.395Z,99077.47
2022-12-28T03:55:45.751Z,99083.56
2022-12-28T03:58:16.322Z,99088.28
2022-12-28T04:00:43.231Z,99093.66
2022-12-28T04:03:10.245Z,99097.06
2022-12-28T04:05:37.453Z,99103.84
2022-12-28T04:08:04.579Z,99101.25
2022-12-28T04:10:31.487Z,99101.06
2022-12-28T04:12:58.429Z,99099.81
2022-12-28T04:15:30.673Z,99105.25
2022-12-28T04:18:01.353Z,99105.16
2022-12-28T04:20:28.319Z,99106.94
2022-12-28T04:22:55.410Z,99110.59
2022-12-28T04:25:23.091Z,99116.03
2022-12-28T04:27:50.239Z,99118.34
2022-12-28T04:30:35.444Z,99121.47
2022-12-28T04:33:02.494Z,99124.25
2022-12-28T04:35:29.497Z,99131.34
2022-12-28T04:37:57.038Z,99136.78
2022-12-28T04:40:23.929Z,99136.03
2022-12-28T04:42:50.848Z,99138.28
2022-12-28T04:45:21.999Z,99146.13
2022-12-28T04:47:49.541Z,99146.00
2022-12-28T04:50:16.779Z,99148.53
2022-12-28T04:52:43.793Z,99144.97
2022-12-28T04:55:31.568Z,99156.13
2022-12-28T04:57:57.600Z,99157.69
2022-12-28T05:00:24.550Z,99156.72
2022-12-28T05:02:51.502Z,99171.63
2022-12-28T05:05:18.400Z,99170.59
2022-12-28T05:07:45.313Z,99169.69
2022-12-28T05:10:12.179Z,99165.44
2022-12-28T05:12:39.178Z,99166.50
2022-12-28T05:15:06.985Z,99167.03
2022-12-28T05:17:34.074Z,99166.13
2022-12-28T05:20:01.055Z,99168.19
2022-12-28T05:22:28.141Z,99166.94
2022-12-28T05:24:55.074Z,99168.28
2022-12-28T05:27:22.015Z,99173.88
2022-12-28T05:29:48.967Z,99172.88
2022-12-28T05:32:16.056Z,99179.28
2022-12-28T05:34:43.027Z,99183.63
2022-12-28T05:37:10.076Z,99187.72
2022-12-28T05:39:36.946Z,99188.38
2022-12-28T05:42:04.634Z,99191.66
2022-12-28T05:44:31.637Z,99193.25
2022-12-28T05:46:58.637Z,99204.44
2022-12-28T05:49:25.561Z,99198.41
2022-12-28T05:51:52.414Z,99201.84
2022-12-28T05:54:19.398Z,99210.44
2022-12-28T05:56:46.701Z,99214.53
2022-12-28T05:59:13.805Z,99217.88
2022-12-28T06:01:43.900Z,99216.25
2022-12-28T06:04:17.144Z,99221.44
2022-12-28T06:06:45.656Z,99226.44
2022-12-28T06:09:12.694Z,99227.03
2022-12-28T06:11:40.084Z,99226.78
2022-12-28T06:14:07.501Z,99227.22
2022-12-28T06:16:37.740Z,99233.91
2022-12-28T06:19:06.895Z,99233.63
2022-12-28T06:21:36.151Z,99242.88
2022-12-28T06:24:04.053Z,99242.59
2022-12-28T06:26:32.750Z,99248.38
2022-12-28T06:29:02.001Z,99251.66
2022-12-28T06:31:32.203Z,99254.84
2022-12-28T06:34:00.657Z,99263.19
2022-12-28T06:36:33.154Z,99262.47
2022-12-28T06:39:01.675Z,99260.78
2022-12-28T06:41:29.647Z,99259.66
2022-12-28T06:43:58.106Z,99262.44
2022-12-28T06:46:27.783Z,99268.00
2022-12-28T06:48:54.913Z,99260.44
2022-12-28T06:51:25.562Z,99270.97
2022-12-28T06:53:53.359Z,99273.16
2022-12-28T06:56:26.876Z,99273.47
2022-12-28T06:59:00.530Z,99272.63
2022-12-28T07:01:41.732Z,99275.53
2022-12-28T07:04:10.003Z,99277.06
2022-12-28T07:06:40.346Z,99270.19
2022-12-28T07:09:11.138Z,99271.97
2022-12-28T07:11:38.434Z,99270.31
2022-12-28T07:14:06.007Z,99277.63
2022-12-28T07:19:00.124Z,99286.78
2022-12-28T07:21:32.822Z,99286.78
2022-12-28T07:23:59.889Z,99281.78
2022-12-28T07:26:29.477Z,99293.81
2022-12-28T07:28:57.651Z,99297.28
2022-12-28T07:31:30.289Z,99289.69
2022-12-28T07:34:00.422Z,99291.50
2022-12-28T07:36:30.162Z,99288.75
2022-12-28T07:38:57.692Z,99292.53
2022-12-28T07:41:30.362Z,99290.41
2022-12-28T07:43:58.900Z,99294.00
2022-12-28T07:46:31.753Z,99294.84
2022-12-28T07:48:58.679Z,99294.72
2022-12-28T07:51:31.069Z,99293.72
2022-12-28T07:53:59.606Z,99300.53
2022-12-28T07:56:28.061Z,99307.19
2022-12-28T07:58:57.839Z,99308.69
2022-12-28T08:01:27.897Z,99311.25
2022-12-28T08:03:57.450Z,99305.34
2022-12-28T08:06:26.121Z,99304.88
2022-12-28T08:08:55.530Z,99305.72
2022-12-28T08:11:25.159Z,99305.69
2022-12-28T08:13:54.997Z,99310.91
2022-12-28T08:16:24.550Z,99311.25
2022-12-28T08:18:51.517Z,99317.91
2022-12-28T08:21:23.046Z,99317.59
2022-12-28T08:23:50.800Z,99317.06
2022-12-28T08:26:20.957Z,99321.69
2022-12-28T08:28:50.377Z,99317.75
2022-12-28T08:31:20.332Z,99321.38
2022-12-28T08:33:47.989Z,99323.38
2022-12-28T08:36:15.419Z,99321.72
2022-12-28T08:38:44.326Z,99316.78
2022-12-28T08:41:13.729Z,99318.28
2022-12-28T08:43:40.804Z,99315.66
2022-12-28T08:46:13.484Z,99312.06
2022-12-28T08:48:40.702Z,99315.44
2022-12-28T08:51:12.018Z,99307.78
2022-12-28T08:53:39.510Z,99303.09
2022-12-28T08:56:16.223Z,99300.47
2022-12-28T08:58:44.979Z,99297.16
2022-12-28T09:01:13.203Z,99300.91
2022-12-28T09:03:44.869Z,99294.00
2022-12-28T09:06:15.198Z,99290.38
2022-12-28T09:08:42.764Z,99289.72
2022-12-28T09:11:13.747Z,99290.50
2022-12-28T09:13:41.235Z,99288.16
2022-12-28T09:16:17.327Z,99291.63
2022-12-28T09:18:45.787Z,99288.19
2022-12-28T09:21:16.099Z,99290.22
2022-12-28T09:23:44.755Z,99291.25
2022-12-28T09:26:13.122Z,99291.44
2022-12-28T09:28:45.205Z,99294.03
2022-12-28T09:31:12.234Z,99293.81
2022-12-28T09:34:33.616Z,99292.66
2022-12-28T09:36:45.336Z,99293.59
2022-12-28T09:39:17.174Z,99281.59
2022-12-28T09:42:02.316Z,99280.91
2022-12-28T10:17:40.927Z,99263.09
2022-12-28T10:20:15.952Z,99264.34
2022-12-28T10:22:49.836Z,99256.03
2022-12-28T10:25:23.357Z,99259.06
2022-12-28T10:27:51.033Z,99253.63
2022-12-28T10:30:21.481Z,99246.13
2022-12-28T10:33:02.727Z,99255.28
2022-12-28T10:35:42.429Z,99255.91
2022-12-28T10:38:29.445Z,99259.94
2022-12-28T10:41:03.980Z,99260.41
2022-12-28T10:43:37.217Z,99255.66
2022-12-28T10:46:07.697Z,99260.72
2022-12-28T10:48:38.298Z,99263.16
2022-12-28T10:51:16.200Z,99261.81
2022-12-28T10:53:51.340Z,99259.38
2022-12-28T10:56:28.563Z,99260.41
2022-12-28T10:59:10.933Z,99259.22
2022-12-28T11:01:38.552Z,99247.50
2022-12-28T11:04:15.990Z,99251.63
2022-12-28T11:07:02.017Z,99242.34
2022-12-28T11:09:35.267Z,99239.94
2022-12-28T11:12:23.727Z,99232.81
2022-12-28T11:14:52.534Z,99235.50
2022-12-28T11:17:27.327Z,99237.75
2022-12-28T11:20:07.029Z,99232.63
2022-12-28T11:22:34.547Z,99226.91
2022-12-28T11:25:02.512Z,99231.03
2022-12-28T11:27:29.424Z,99233.81
2022-12-28T11:29:56.400Z,99229.75
2022-12-28T11:32:26.138Z,99227.19
2022-12-28T11:34:55.846Z,99229.16
2022-12-28T11:37:22.792Z,99225.16
2022-12-28T11:39:51.814Z,99212.00
2022-12-28T11:42:40.038Z,99208.25
2022-12-28T11:45:17.258Z,99218.13
2022-12-28T11:47:45.826Z,99216.84
2022-12-28T11:50:34.820Z,99214.22
2022-12-28T11:53:04.725Z,99212.78
2022-12-28T11:55:58.315Z,99212.72
2022-12-28T11:58:31.221Z,99201.28
2022-12-28T12:01:00.273Z,99202.53
2022-12-28T12:03:59.520Z,99196.56
2022-12-28T12:06:45.022Z,99186.66
2022-12-28T12:09:28.263Z,99193.75
2022-12-28T12:12:03.976Z,99187.69
2022-12-28T12:14:38.582Z,99183.25
2022-12-28T12:17:07.931Z,99188.19
2022-12-28T12:19:39.681Z,99184.84
2022-12-28T12:22:28.834Z,99185.56
2022-12-28T12:25:02.698Z,99178.94
2022-12-28T12:27:46.797Z,99181.69
2022-12-28T12:30:15.903Z,99179.31
2022-12-28T12:32:48.837Z,99179.78
2022-12-28T12:35:20.028Z,99181.97
2022-12-28T12:37:56.922Z,99187.47
2022-12-28T12:40:50.485Z,99190.88
2022-12-28T12:43:47.601Z,99186.56
2022-12-28T12:46:18.616Z,99186.00
2022-12-28T12:49:13.216Z,99188.59
2022-12-28T12:52:03.563Z,99189.69
2022-12-28T12:55:17.214Z,99193.41
2022-12-28T12:57:53.772Z,99192.94
2022-12-28T13:00:22.650Z,99187.44
2022-12-28T13:03:00.105Z,99195.38
2022-12-28T13:05:30.170Z,99200.53
2022-12-28T13:07:59.304Z,99194.72
2022-12-28T13:10:40.967Z,99193.13
2022-12-28T13:13:15.407Z,99193.91
2022-12-28T13:15:44.128Z,99190.50
2022-12-28T13:18:44.540Z,99194.19
2022-12-28T13:21:12.544Z,99189.88
2022-12-28T13:23:44.773Z,99191.72
2022-12-28T13:26:14.749Z,99195.19
2022-12-28T13:29:11.121Z,99197.53
2022-12-28T13:31:40.065Z,99196.59
2022-12-28T13:34:19.021Z,99202.78
2022-12-28T13:36:48.976Z,99204.41
2022-12-28T13:39:18.145Z,99203.22
2022-12-28T13:41:56.537Z,99200.31
2022-12-28T13:44:29.733Z,99202.84
2022-12-28T13:47:03.180Z,99209.94
2022-12-28T13:49:36.981Z,99198.63
2022-12-28T13:52:09.191Z,99201.97
2022-12-28T13:54:37.894Z,99195.28
2022-12-28T13:57:44.562Z,99192.47
2022-12-28T13:59:56.001Z,99198.31
2022-12-28T14:02:24.508Z,99202.69
2022-12-28T14:04:53.815Z,99203.06
2022-12-28T14:07:24.320Z,99208.41
2022-12-28T14:09:52.381Z,99209.13
2022-12-28T14:12:20.063Z,99201.88
2022-12-28T14:14:48.215Z,99208.09
2022-12-28T14:17:15.920Z,99197.66
2022-12-28T14:19:46.171Z,99204.41
2022-12-28T14:22:37.143Z,99208.13
2022-12-28T14:25:23.058Z,99201.91
2022-12-28T14:28:03.821Z,99199.81
2022-12-28T14:30:37.082Z,99187.66
2022-12-28T14:33:22.298Z,99198.09
2022-12-28T14:35:54.222Z,99186.31
2022-12-28T14:38:25.448Z,99182.94
2022-12-28T14:40:58.341Z,99187.13
2022-12-28T14:43:28.619Z,99187.66
2022-12-28T14:46:04.920Z,99185.06
2022-12-28T14:48:37.493Z,99193.72
2022-12-28T14:51:23.287Z,99192.22
2022-12-28T14:54:10.357Z,99194.75
2022-12-28T14:56:37.437Z,99199.03
2022-12-28T14:59:06.308Z,99198.34
2022-12-28T15:01:45.532Z,99199.03
2022-12-28T15:04:26.853Z,99202.88
2022-12-28T15:06:54.864Z,99207.28
2022-12-28T15:09:22.226Z,99199.19
2022-12-28T15:11:49.115Z,99198.47
2022-12-28T15:14:16.142Z,99192.97
2022-12-28T15:16:44.576Z,99196.97
2022-12-28T15:19:11.620Z,99198.03
2022-12-28T15:21:38.636Z,99195.91
2022-12-28T15:24:05.928Z,99199.91
2022-12-28T15:26:32.801Z,99202.22
2022-12-28T15:29:05.636Z,99195.38
2022-12-28T15:31:32.574Z,99194.53
2022-12-28T15:33:59.562Z,99195.28
2022-12-28T15:36:26.489Z,99202.22
2022-12-28T15:38:56.519Z,99201.31
2022-12-28T15:41:41.867Z,99206.94
2022-12-28T15:44:08.755Z,99208.91
2022-12-28T15:46:35.826Z,99203.81
2022-12-28T15:49:03.919Z,99205.50
2022-12-28T15:51:30.901Z,99200.69
2022-12-28T15:53:57.885Z,99206.97
2022-12-28T15:56:28.170Z,99207.81
2022-12-28T15:58:56.779Z,99205.22
2022-12-28T16:01:25.435Z,99208.13
2022-12-28T16:03:53.119Z,99203.16
2022-12-28T16:06:21.051Z,99212.63
2022-12-28T16:08:48.310Z,99200.63
2022-12-28T16:11:18.013Z,99214.03
2022-12-28T16:13:54.336Z,99214.53
2022-12-28T16:16:22.531Z,99207.13
2022-12-28T16:18:50.590Z,99210.81
2022-12-28T16:21:17.563Z,99205.00
2022-12-28T16:23:45.543Z,99215.09
2022-12-28T16:26:14.088Z,99212.19
2022-12-28T16:28:41.354Z,99212.34
2022-12-28T16:31:08.584Z,99208.75
2022-12-28T16:33:36.142Z,99214.56
2022-12-28T16:36:10.909Z,99216.00
2022-12-28T16:38:37.796Z,99212.72
2022-12-28T16:41:05.803Z,99220.00
2022-12-28T16:43:32.680Z,99220.06
2022-12-28T16:46:05.957Z,99217.69
2022-12-28T16:48:33.749Z,99221.75
2022-12-28T16:51:01.282Z,99218.44
2022-12-28T16:53:29.348Z,99216.84
2022-12-28T16:56:00.862Z,99210.19
2022-12-28T16:58:28.892Z,99210.81
2022-12-28T17:00:56.680Z,99209.81
2022-12-28T17:03:25.069Z,99212.63
2022-12-28T17:05:52.958Z,99216.94
2022-12-28T17:08:19.986Z,99216.09
2022-12-28T17:10:46.887Z,99207.28
2022-12-28T17:13:13.938Z,99214.03
2022-12-28T17:15:41.197Z,99214.47
2022-12-28T17:18:08.381Z,99211.13
2022-12-28T17:20:38.915Z,99212.03
2022-12-28T17:23:06.851Z,99215.47
2022-12-28T17:25:35.476Z,99222.84
2022-12-28T17:28:03.418Z,99214.75
2022-12-28T17:30:30.486Z,99214.38
2022-12-28T17:32:57.661Z,99209.13
2022-12-28T17:35:24.700Z,99209.72
2022-12-28T17:37:51.686Z,99215.53
2022-12-28T17:40:19.783Z,99224.44
2022-12-28T17:42:46.912Z,99218.63
2022-12-28T17:45:13.901Z,99219.38
2022-12-28T17:47:40.813Z,99221.44
2022-12-28T17:50:08.575Z,99215.53
2022-12-28T17:52:35.562Z,99218.81
2022-12-28T17:55:03.766Z,99214.75
2022-12-28T17:57:35.348Z,99219.06
2022-12-28T18:00:06.648Z,99222.97
2022-12-28T18:02:39.331Z,99213.53
2022-12-28T18:05:07.054Z,99204.28
2022-12-28T18:07:34.364Z,99207.09
2022-12-28T18:10:01.282Z,99207.25
2022-12-28T18:12:28.231Z,99203.13
2022-12-28T18:14:55.413Z,99211.09
2022-12-28T18:17:23.477Z,99208.97
2022-12-28T18:19:53.671Z,99207.41
2022-12-28T18:22:23.088Z,99207.66
2022-12-28T18:24:50.823Z,99209.47
2022-12-28T18:27:17.985Z,99205.19
2022-12-28T18:29:45.413Z,99208.03
2022-12-28T18:32:12.338Z,99210.81
2022-12-28T18:34:39.404Z,99214.09
2022-12-28T18:37:06.719Z,99212.03
2022-12-28T18:39:34.607Z,99217.38
2022-12-28T18:42:03.131Z,99210.34
2022-12-28T18:44:30.104Z,99217.25
2022-12-28T18:46:57.113Z,99213.94
2022-12-28T18:49:24.817Z,99216.97
2022-12-28T18:51:51.808Z,99221.34
2022-12-28T18:54:18.894Z,99218.13
2022-12-28T18:56:45.798Z,99221.75
2022-12-28T18:59:12.720Z,99217.53
2022-12-28T19:04:29.357Z,99220.84
2022-12-28T19:06:56.910Z,99213.63
2022-12-28T19:09:23.905Z,99213.94
2022-12-28T19:11:52.906Z,99215.72
2022-12-28T19:14:19.949Z,99216.63
2022-12-28T19:16:47.029Z,99215.84
2022-12-28T19:19:17.079Z,99213.88
2022-12-28T19:21:44.877Z,99220.22
2022-12-28T19:24:17.868Z,99228.09
2022-12-28T19:26:46.305Z,99214.09
2022-12-28T19:29:14.420Z,99220.28
2022-12-28T19:31:41.427Z,99218.72
2022-12-28T19:34:09.249Z,99219.53
2022-12-28T19:36:36.430Z,99220.59
2022-12-28T19:39:03.495Z,99223.34
2022-12-28T19:41:30.387Z,99221.44
2022-12-28T19:43:57.364Z,99217.16
2022-12-28T19:46:31.562Z,99216.47
2022-12-28T19:49:03.501Z,99215.00
2022-12-28T19:51:32.286Z,99214.78
2022-12-28T19:54:02.355Z,99216.31
2022-12-28T19:56:29.503Z,99211.97
2022-12-28T19:59:01.447Z,99205.84
2022-12-28T20:01:30.393Z,99209.66
2022-12-28T20:03:58.373Z,99199.31
2022-12-28T20:06:27.820Z,99207.06
2022-12-28T20:08:57.521Z,99202.91
2022-12-28T20:11:25.199Z,99198.41
2022-12-28T20:13:54.332Z,99196.66
2022-12-28T20:16:21.875Z,99200.22
2022-12-28T20:18:51.242Z,99195.19
2022-12-28T20:21:20.459Z,99197.81
2022-12-28T20:23:49.541Z,99193.97
2022-12-28T20:26:17.600Z,99192.81
2022-12-28T20:28:45.419Z,99191.81
2022-12-28T20:31:14.453Z,99199.09
2022-12-28T20:33:42.532Z,99204.44
2022-12-28T20:36:13.679Z,99199.16
2022-12-28T20:38:40.784Z,99196.41
2022-12-28T20:41:31.786Z,99198.03
2022-12-28T20:44:00.102Z,99188.84
2022-12-28T20:46:27.607Z,99195.47
2022-12-28T20:48:55.249Z,99191.56
2022-12-28T20:51:22.371Z,99188.00
2022-12-28T20:53:49.346Z,99189.06
2022-12-28T20:56:16.476Z,99184.00
2022-12-28T20:58:43.411Z,99178.97
2022-12-28T21:01:13.212Z,99178.41
2022-12-28T21:03:40.703Z,99181.88
2022-12-28T21:06:08.164Z,99179.03
2022-12-28T21:08:35.370Z,99187.69
2022-12-28T21:11:03.003Z,99177.28
2022-12-28T21:13:30.137Z,99182.63
2022-12-28T21:15:57.210Z,99179.03
2022-12-28T21:18:24.461Z,99177.78
2022-12-28T21:20:55.814Z,99179.88
2022-12-28T21:23:22.971Z,99192.38
2022-12-28T21:25:49.919Z,99186.78
2022-12-28T21:28:16.959Z,99188.47
2022-12-28T21:30:43.940Z,99189.22
2022-12-28T21:33:10.939Z,99186.88
2022-12-28T21:35:37.894Z,99179.81
2022-12-28T21:38:05.588Z,99185.16
2022-12-28T21:40:33.180Z,99183.47
2022-12-28T21:43:00.019Z,99192.06
2022-12-28T21:45:26.933Z,99183.34
2022-12-28T21:47:53.855Z,99179.19
2022-12-28T21:50:20.779Z,99181.66
2022-12-28T21:52:47.717Z,99182.41
2022-12-28T21:55:33.196Z,99178.75
2022-12-28T21:58:01.172Z,99182.94
2022-12-28T22:00:46.866Z,99172.72
2022-12-28T22:03:32.364Z,99170.69
2022-12-28T22:06:06.697Z,99171.63
2022-12-28T22:08:52.895Z,99160.28
2022-12-28T22:11:38.616Z,99159.09
2022-12-28T22:14:07.095Z,99155.41
2022-12-28T22:16:35.327Z,99147.84
2022-12-28T22:19:03.909Z,99152.19
2022-12-28T22:21:31.468Z,99156.00
2022-12-28T22:23:58.645Z,99142.78
2022-12-28T22:26:25.582Z,99144.63
2022-12-28T22:28:52.441Z,99144.56
2022-12-28T22:31:20.477Z,99143.63
2022-12-28T22:33:47.510Z,99141.34
2022-12-28T22:36:17.114Z,99141.25
2022-12-28T22:38:44.345Z,99140.09
2022-12-28T22:41:11.457Z,99142.94
2022-12-28T22:43:38.416Z,99135.22
2022-12-28T22:46:10.284Z,99133.66
2022-12-28T22:48:37.849Z,99136.88
2022-12-28T22:51:10.405Z,99137.81
2022-12-28T22:53:38.349Z,99133.31
2022-12-28T22:56:08.255Z,99130.53
2022-12-28T22:58:35.171Z,99132.31
2022-12-28T23:01:10.979Z,99121.16
2022-12-28T23:03:43.227Z,99125.28
2022-12-28T23:06:12.006Z,99130.31
2022-12-28T23:08:39.072Z,99122.69
2022-12-28T23:11:27.944Z,99118.31
2022-12-28T23:13:54.886Z,99117.16
2022-12-28T23:16:21.934Z,99123.03
2022-12-28T23:19:07.346Z,99122.38
2022-12-28T23:21:52.999Z,99118.16
2022-12-28T23:24:38.723Z,99123.13
2022-12-28T23:27:20.945Z,99114.91
2022-12-28T23:29:47.858Z,99109.97
2022-12-28T23:32:14.900Z,99112.59
2022-12-28T23:34:41.852Z,99113.94
2022-12-28T23:37:08.893Z,99113.03
2022-12-28T23:39:35.919Z,99113.78
2022-12-28T23:42:02.851Z,99109.50
2022-12-28T23:44:29.821Z,99109.19
2022-12-28T23:46:59.298Z,99105.81
2022-12-28T23:49:26.821Z,99106.06
2022-12-28T23:51:53.800Z,99104.47
2022-12-28T23:54:21.015Z,99099.31
2022-12-28T23:56:49.263Z,99093.59
2022-12-28T23:59:16.608Z,99107.44
